sensor_id;sensor_type;location;lat;lon;timestamp;pressure;altitude;pressure_sealevel;temperature;humidity
19447;BME280;9862;49.462;11.054;2023-06-01T00:00:07;98251.25;;;19.73;79.65
19447;BME280;9862;49.462;11.054;2023-06-01T00:02:35;98259.31;;;19.68;80.65
19447;BME280;9862;49.462;11.054;2023-06-01T00:05:02;98260.13;;;19.68;79.66
19447;BME280;9862;49.462;11.054;2023-06-01T00:07:28;98259.06;;;19.69;79.20
19447;BME280;9862;49.462;11.054;2023-06-01T00:09:58;98259.28;;;19.63;81.61
19447;BME280;9862;49.462;11.054;2023-06-01T00:12:26;98257.13;;;19.60;82.50
19447;BME280;9862;49.462;11.054;2023-06-01T00:14:53;98249.47;;;19.52;83.32
19447;BME280;9862;49.462;11.054;2023-06-01T00:17:20;98254.63;;;19.53;83.25
19447;BME280;9862;49.462;11.054;2023-06-01T00:19:48;98249.53;;;19.57;82.93
19447;BME280;9862;49.462;11.054;2023-06-01T00:22:14;98255.53;;;19.64;82.69
19447;BME280;9862;49.462;11.054;2023-06-01T00:24:42;98262.00;;;19.68;82.53
19447;BME280;9862;49.462;11.054;2023-06-01T00:27:08;98253.41;;;19.71;82.89
19447;BME280;9862;49.462;11.054;2023-06-01T00:29:36;98256.59;;;19.63;83.44
19447;BME280;9862;49.462;11.054;2023-06-01T00:32:03;98256.19;;;19.49;84.87
19447;BME280;9862;49.462;11.054;2023-06-01T00:34:30;98250.56;;;19.51;85.51
19447;BME280;9862;49.462;11.054;2023-06-01T00:36:57;98253.75;;;19.48;86.09
19447;BME280;9862;49.462;11.054;2023-06-01T00:39:23;98245.66;;;19.48;86.31
19447;BME280;9862;49.462;11.054;2023-06-01T00:41:50;98239.72;;;19.45;87.12
19447;BME280;9862;49.462;11.054;2023-06-01T00:44:17;98243.50;;;19.44;86.63
19447;BME280;9862;49.462;11.054;2023-06-01T00:46:45;98242.41;;;19.45;86.28
19447;BME280;9862;49.462;11.054;2023-06-01T00:49:11;98243.72;;;19.38;87.66
19447;BME280;9862;49.462;11.054;2023-06-01T00:51:38;98230.53;;;19.41;88.35
19447;BME280;9862;49.462;11.054;2023-06-01T00:54:06;98235.41;;;19.44;88.96
19447;BME280;9862;49.462;11.054;2023-06-01T00:56:33;98232.75;;;19.50;89.10
19447;BME280;9862;49.462;11.054;2023-06-01T00:59:01;98230.63;;;19.57;88.59
19447;BME280;9862;49.462;11.054;2023-06-01T01:01:28;98230.13;;;19.65;86.86
19447;BME280;9862;49.462;11.054;2023-06-01T01:03:56;98237.72;;;19.68;85.55
19447;BME280;9862;49.462;11.054;2023-06-01T01:06:35;98236.63;;;19.64;83.28
19447;BME280;9862;49.462;11.054;2023-06-01T01:09:20;98237.97;;;19.66;84.58
19447;BME280;9862;49.462;11.054;2023-06-01T01:11:52;98242.88;;;19.32;87.32
19447;BME280;9862;49.462;11.054;2023-06-01T01:14:24;98237.56;;;19.10;88.88
19447;BME280;9862;49.462;11.054;2023-06-01T01:16:59;98242.16;;;18.73;92.83
19447;BME280;9862;49.462;11.054;2023-06-01T01:19:40;98248.72;;;18.60;97.98
19447;BME280;9862;49.462;11.054;2023-06-01T01:22:31;98241.69;;;18.59;98.51
19447;BME280;9862;49.462;11.054;2023-06-01T01:30:42;98240.91;;;18.85;94.92
19447;BME280;9862;49.462;11.054;2023-06-01T01:33:11;98243.16;;;18.99;94.43
19447;BME280;9862;49.462;11.054;2023-06-01T01:35:38;98242.13;;;19.05;93.65
19447;BME280;9862;49.462;11.054;2023-06-01T01:38:05;98242.66;;;19.02;95.86
19447;BME280;9862;49.462;11.054;2023-06-01T01:40:31;98238.31;;;19.01;96.42
19447;BME280;9862;49.462;11.054;2023-06-01T01:42:58;98234.56;;;19.02;96.67
19447;BME280;9862;49.462;11.054;2023-06-01T01:45:26;98232.09;;;19.00;96.26
19447;BME280;9862;49.462;11.054;2023-06-01T01:47:59;98231.81;;;18.97;96.22
19447;BME280;9862;49.462;11.054;2023-06-01T01:50:32;98228.38;;;19.01;96.00
19447;BME280;9862;49.462;11.054;2023-06-01T01:53:01;98226.78;;;19.10;91.20
19447;BME280;9862;49.462;11.054;2023-06-01T01:55:30;98222.78;;;19.13;89.15
19447;BME280;9862;49.462;11.054;2023-06-01T01:57:58;98220.00;;;19.03;90.62
19447;BME280;9862;49.462;11.054;2023-06-01T02:00:25;98223.38;;;18.88;91.10
19447;BME280;9862;49.462;11.054;2023-06-01T02:02:52;98226.78;;;18.73;93.15
19447;BME280;9862;49.462;11.054;2023-06-01T02:05:21;98226.94;;;18.40;94.93
19447;BME280;9862;49.462;11.054;2023-06-01T02:07:48;98224.81;;;18.15;100.00
19447;BME280;9862;49.462;11.054;2023-06-01T02:10:19;98218.47;;;18.04;100.00
19447;BME280;9862;49.462;11.054;2023-06-01T02:12:47;98216.75;;;17.93;100.00
19447;BME280;9862;49.462;11.054;2023-06-01T02:15:15;98215.00;;;17.82;100.00
19447;BME280;9862;49.462;11.054;2023-06-01T02:17:42;98215.13;;;17.92;100.00
19447;BME280;9862;49.462;11.054;2023-06-01T02:20:10;98215.63;;;17.89;100.00
19447;BME280;9862;49.462;11.054;2023-06-01T02:22:38;98214.22;;;18.08;100.00
19447;BME280;9862;49.462;11.054;2023-06-01T02:25:07;98219.50;;;17.98;100.00
19447;BME280;9862;49.462;11.054;2023-06-01T02:27:34;98222.69;;;17.95;100.00
19447;BME280;9862;49.462;11.054;2023-06-01T02:30:01;98209.81;;;17.97;100.00
19447;BME280;9862;49.462;11.054;2023-06-01T02:32:27;98207.97;;;18.02;100.00
19447;BME280;9862;49.462;11.054;2023-06-01T02:34:56;98214.91;;;18.20;100.00
19447;BME280;9862;49.462;11.054;2023-06-01T02:37:22;98218.31;;;18.38;95.71
19447;BME280;9862;49.462;11.054;2023-06-01T02:39:50;98209.88;;;18.29;97.00
19447;BME280;9862;49.462;11.054;2023-06-01T02:42:17;98215.03;;;18.09;99.07
19447;BME280;9862;49.462;11.054;2023-06-01T02:44:44;98213.56;;;17.96;100.00
19447;BME280;9862;49.462;11.054;2023-06-01T02:47:11;98219.97;;;17.95;100.00
19447;BME280;9862;49.462;11.054;2023-06-01T02:49:38;98215.13;;;17.92;100.00
19447;BME280;9862;49.462;11.054;2023-06-01T02:52:05;98214.00;;;17.88;100.00
19447;BME280;9862;49.462;11.054;2023-06-01T02:54:32;98206.88;;;18.25;96.66
19447;BME280;9862;49.462;11.054;2023-06-01T02:57:00;98214.38;;;18.23;95.62
19447;BME280;9862;49.462;11.054;2023-06-01T02:59:26;98209.94;;;18.12;97.36
19447;BME280;9862;49.462;11.054;2023-06-01T03:01:53;98211.09;;;17.94;98.02
19447;BME280;9862;49.462;11.054;2023-06-01T03:04:20;98209.09;;;17.85;99.03
19447;BME280;9862;49.462;11.054;2023-06-01T03:06:46;98211.50;;;17.64;100.00
19447;BME280;9862;49.462;11.054;2023-06-01T03:09:14;98208.69;;;17.54;100.00
19447;BME280;9862;49.462;11.054;2023-06-01T03:11:42;98207.06;;;17.53;100.00
19447;BME280;9862;49.462;11.054;2023-06-01T03:14:10;98202.81;;;17.57;100.00
19447;BME280;9862;49.462;11.054;2023-06-01T03:16:36;98206.59;;;17.78;99.86
19447;BME280;9862;49.462;11.054;2023-06-01T03:19:03;98207.59;;;17.72;100.00
19447;BME280;9862;49.462;11.054;2023-06-01T03:21:30;98202.81;;;17.57;100.00
19447;BME280;9862;49.462;11.054;2023-06-01T03:23:57;98212.81;;;17.40;100.00
19447;BME280;9862;49.462;11.054;2023-06-01T03:26:24;98201.09;;;17.29;100.00
19447;BME280;9862;49.462;11.054;2023-06-01T03:28:51;98207.44;;;17.40;100.00
19447;BME280;9862;49.462;11.054;2023-06-01T03:31:19;98204.44;;;17.58;100.00
19447;BME280;9862;49.462;11.054;2023-06-01T03:33:45;98208.97;;;17.74;100.00
19447;BME280;9862;49.462;11.054;2023-06-01T03:36:12;98208.19;;;17.57;100.00
19447;BME280;9862;49.462;11.054;2023-06-01T03:38:39;98215.06;;;17.48;100.00
19447;BME280;9862;49.462;11.054;2023-06-01T03:41:06;98206.78;;;17.33;100.00
19447;BME280;9862;49.462;11.054;2023-06-01T03:43:33;98210.38;;;17.22;100.00
19447;BME280;9862;49.462;11.054;2023-06-01T03:46:00;98206.50;;;17.12;100.00
19447;BME280;9862;49.462;11.054;2023-06-01T03:48:28;98212.00;;;17.23;100.00
19447;BME280;9862;49.462;11.054;2023-06-01T03:50:55;98207.91;;;17.37;100.00
19447;BME280;9862;49.462;11.054;2023-06-01T03:53:21;98202.31;;;17.60;100.00
19447;BME280;9862;49.462;11.054;2023-06-01T03:55:48;98207.84;;;17.70;100.00
19447;BME280;9862;49.462;11.054;2023-06-01T03:58:16;98210.25;;;17.50;100.00
19447;BME280;9862;49.462;11.054;2023-06-01T04:00:44;98203.53;;;17.31;100.00
19447;BME280;9862;49.462;11.054;2023-06-01T04:03:11;98207.06;;;17.14;100.00
19447;BME280;9862;49.462;11.054;2023-06-01T04:05:41;98203.72;;;17.07;100.00
19447;BME280;9862;49.462;11.054;2023-06-01T04:08:15;98215.72;;;17.00;100.00
19447;BME280;9862;49.462;11.054;2023-06-01T04:10:42;98204.91;;;17.16;100.00
19447;BME280;9862;49.462;11.054;2023-06-01T04:13:08;98216.75;;;17.15;100.00
19447;BME280;9862;49.462;11.054;2023-06-01T04:15:35;98216.44;;;16.95;100.00
19447;BME280;9862;49.462;11.054;2023-06-01T04:18:02;98219.53;;;16.87;100.00
19447;BME280;9862;49.462;11.054;2023-06-01T04:20:28;98218.81;;;16.92;100.00
19447;BME280;9862;49.462;11.054;2023-06-01T04:22:57;98211.00;;;16.90;100.00
19447;BME280;9862;49.462;11.054;2023-06-01T04:25:24;98224.44;;;16.90;100.00
19447;BME280;9862;49.462;11.054;2023-06-01T04:27:51;98215.63;;;16.95;100.00
19447;BME280;9862;49.462;11.054;2023-06-01T04:30:20;98227.75;;;16.97;100.00
19447;BME280;9862;49.462;11.054;2023-06-01T04:32:47;98220.75;;;16.96;100.00
19447;BME280;9862;49.462;11.054;2023-06-01T04:35:14;98222.47;;;17.02;100.00
19447;BME280;9862;49.462;11.054;2023-06-01T04:37:41;98222.13;;;17.15;100.00
19447;BME280;9862;49.462;11.054;2023-06-01T04:40:10;98220.00;;;17.17;100.00
19447;BME280;9862;49.462;11.054;2023-06-01T04:42:39;98228.81;;;17.13;100.00
19447;BME280;9862;49.462;11.054;2023-06-01T04:45:08;98223.44;;;17.13;100.00
19447;BME280;9862;49.462;11.054;2023-06-01T04:47:35;98227.66;;;17.26;100.00
19447;BME280;9862;49.462;11.054;2023-06-01T04:50:04;98223.06;;;17.43;100.00
19447;BME280;9862;49.462;11.054;2023-06-01T04:52:33;98226.44;;;17.55;100.00
19447;BME280;9862;49.462;11.054;2023-06-01T04:55:00;98225.97;;;17.58;100.00
19447;BME280;9862;49.462;11.054;2023-06-01T04:57:28;98219.28;;;17.61;100.00
19447;BME280;9862;49.462;11.054;2023-06-01T04:59:55;98225.13;;;17.74;100.00
19447;BME280;9862;49.462;11.054;2023-06-01T05:02:22;98230.50;;;17.74;100.00
19447;BME280;9862;49.462;11.054;2023-06-01T05:04:49;98235.25;;;17.67;100.00
19447;BME280;9862;49.462;11.054;2023-06-01T05:07:16;98224.97;;;17.64;100.00
19447;BME280;9862;49.462;11.054;2023-06-01T05:09:42;98221.88;;;17.56;100.00
19447;BME280;9862;49.462;11.054;2023-06-01T05:12:09;98221.72;;;17.62;100.00
19447;BME280;9862;49.462;11.054;2023-06-01T05:14:37;98212.19;;;17.71;100.00
19447;BME280;9862;49.462;11.054;2023-06-01T05:17:04;98215.72;;;18.75;100.00
19447;BME280;9862;49.462;11.054;2023-06-01T05:19:31;98213.47;;;19.83;100.00
19447;BME280;9862;49.462;11.054;2023-06-01T05:21:57;98207.25;;;20.66;100.00
19447;BME280;9862;49.462;11.054;2023-06-01T05:24:24;98201.28;;;21.09;100.00
19447;BME280;9862;49.462;11.054;2023-06-01T05:26:50;98204.53;;;21.27;100.00
19447;BME280;9862;49.462;11.054;2023-06-01T05:29:17;98202.94;;;20.85;92.75
19447;BME280;9862;49.462;11.054;2023-06-01T05:31:45;98214.19;;;20.41;90.80
19447;BME280;9862;49.462;11.054;2023-06-01T05:34:13;98203.84;;;20.08;97.58
19447;BME280;9862;49.462;11.054;2023-06-01T05:36:40;98210.03;;;19.98;99.79
19447;BME280;9862;49.462;11.054;2023-06-01T05:39:06;98208.66;;;19.90;95.26
19447;BME280;9862;49.462;11.054;2023-06-01T05:41:33;98208.66;;;19.90;96.22
19447;BME280;9862;49.462;11.054;2023-06-01T05:44:00;98203.72;;;19.77;96.95
19447;BME280;9862;49.462;11.054;2023-06-01T05:46:26;98207.19;;;19.67;96.28
19447;BME280;9862;49.462;11.054;2023-06-01T05:48:54;98208.09;;;19.83;99.28
19447;BME280;9862;49.462;11.054;2023-06-01T05:51:21;98195.78;;;20.33;98.87
19447;BME280;9862;49.462;11.054;2023-06-01T05:53:48;98192.34;;;20.73;97.27
19447;BME280;9862;49.462;11.054;2023-06-01T05:56:15;98199.38;;;21.00;82.45
19447;BME280;9862;49.462;11.054;2023-06-01T05:58:41;98193.97;;;20.69;81.69
19447;BME280;9862;49.462;11.054;2023-06-01T06:01:08;98205.25;;;20.36;85.16
19447;BME280;9862;49.462;11.054;2023-06-01T06:03:36;98197.09;;;20.15;87.20
19447;BME280;9862;49.462;11.054;2023-06-01T06:06:05;98200.59;;;20.06;87.72
19447;BME280;9862;49.462;11.054;2023-06-01T06:08:32;98200.56;;;19.90;89.04
19447;BME280;9862;49.462;11.054;2023-06-01T06:10:58;98198.91;;;19.84;89.65
19447;BME280;9862;49.462;11.054;2023-06-01T06:13:25;98204.56;;;19.83;90.42
19447;BME280;9862;49.462;11.054;2023-06-01T06:15:52;98207.50;;;19.71;93.63
19447;BME280;9862;49.462;11.054;2023-06-01T06:18:20;98203.63;;;19.57;97.08
19447;BME280;9862;49.462;11.054;2023-06-01T06:20:46;98209.25;;;19.50;100.00
19447;BME280;9862;49.462;11.054;2023-06-01T06:23:15;98207.31;;;19.45;100.00
19447;BME280;9862;49.462;11.054;2023-06-01T06:25:41;98202.47;;;19.42;100.00
19447;BME280;9862;49.462;11.054;2023-06-01T06:28:08;98208.34;;;19.39;100.00
19447;BME280;9862;49.462;11.054;2023-06-01T06:30:35;98204.13;;;19.54;100.00
19447;BME280;9862;49.462;11.054;2023-06-01T06:33:01;98202.50;;;19.53;100.00
19447;BME280;9862;49.462;11.054;2023-06-01T06:35:28;98197.91;;;19.53;100.00
19447;BME280;9862;49.462;11.054;2023-06-01T06:37:54;98196.66;;;19.66;100.00
19447;BME280;9862;49.462;11.054;2023-06-01T06:40:22;98198.84;;;19.74;100.00
19447;BME280;9862;49.462;11.054;2023-06-01T06:42:49;98198.94;;;19.89;100.00
19447;BME280;9862;49.462;11.054;2023-06-01T06:45:16;98192.53;;;20.21;95.46
19447;BME280;9862;49.462;11.054;2023-06-01T06:47:42;98201.72;;;20.20;95.37
19447;BME280;9862;49.462;11.054;2023-06-01T06:50:11;98205.50;;;20.24;95.89
19447;BME280;9862;49.462;11.054;2023-06-01T06:52:38;98199.84;;;20.36;90.24
19447;BME280;9862;49.462;11.054;2023-06-01T06:55:05;98203.91;;;20.28;92.38
19447;BME280;9862;49.462;11.054;2023-06-01T06:57:33;98198.25;;;20.40;92.63
19447;BME280;9862;49.462;11.054;2023-06-01T07:00:00;98190.97;;;20.55;91.81
19447;BME280;9862;49.462;11.054;2023-06-01T07:02:30;98192.34;;;20.63;89.62
19447;BME280;9862;49.462;11.054;2023-06-01T07:04:57;98197.50;;;20.75;88.07
19447;BME280;9862;49.462;11.054;2023-06-01T07:07:24;98191.00;;;20.91;86.89
19447;BME280;9862;49.462;11.054;2023-06-01T07:09:51;98200.19;;;20.90;83.51
19447;BME280;9862;49.462;11.054;2023-06-01T07:12:18;98192.91;;;20.80;84.53
19447;BME280;9862;49.462;11.054;2023-06-01T07:14:46;98189.94;;;20.77;85.89
19447;BME280;9862;49.462;11.054;2023-06-01T07:17:13;98189.38;;;20.80;87.71
19447;BME280;9862;49.462;11.054;2023-06-01T07:19:40;98185.06;;;20.89;89.27
19447;BME280;9862;49.462;11.054;2023-06-01T07:22:06;98182.34;;;20.99;88.13
19447;BME280;9862;49.462;11.054;2023-06-01T07:24:33;98185.56;;;21.11;88.32
19447;BME280;9862;49.462;11.054;2023-06-01T07:26:59;98172.28;;;21.25;87.91
19447;BME280;9862;49.462;11.054;2023-06-01T07:29:27;98169.59;;;21.30;85.95
19447;BME280;9862;49.462;11.054;2023-06-01T07:31:55;98173.66;;;21.28;87.45
19447;BME280;9862;49.462;11.054;2023-06-01T07:34:21;98165.56;;;21.33;87.11
19447;BME280;9862;49.462;11.054;2023-06-01T07:36:48;98167.13;;;21.39;85.40
19447;BME280;9862;49.462;11.054;2023-06-01T07:39:15;98173.84;;;21.57;81.52
19447;BME280;9862;49.462;11.054;2023-06-01T07:41:44;98165.03;;;21.90;74.88
19447;BME280;9862;49.462;11.054;2023-06-01T07:44:10;98168.84;;;21.89;74.48
19447;BME280;9862;49.462;11.054;2023-06-01T07:46:37;98161.50;;;21.95;77.54
19447;BME280;9862;49.462;11.054;2023-06-01T07:49:05;98166.69;;;21.91;80.63
19447;BME280;9862;49.462;11.054;2023-06-01T07:51:32;98164.13;;;22.15;70.54
19447;BME280;9862;49.462;11.054;2023-06-01T07:53:59;98164.63;;;22.22;70.75
19447;BME280;9862;49.462;11.054;2023-06-01T07:56:26;98161.66;;;22.19;73.79
19447;BME280;9862;49.462;11.054;2023-06-01T07:58:53;98154.06;;;22.21;75.51
19447;BME280;9862;49.462;11.054;2023-06-01T08:01:20;98161.91;;;22.22;73.70
19447;BME280;9862;49.462;11.054;2023-06-01T08:03:47;98160.03;;;22.18;75.65
19447;BME280;9862;49.462;11.054;2023-06-01T08:06:15;98148.38;;;22.17;74.14
19447;BME280;9862;49.462;11.054;2023-06-01T08:08:42;98157.75;;;22.40;64.32
19447;BME280;9862;49.462;11.054;2023-06-01T08:11:10;98154.41;;;22.48;63.62
19447;BME280;9862;49.462;11.054;2023-06-01T08:13:37;98150.13;;;22.42;65.55
19447;BME280;9862;49.462;11.054;2023-06-01T08:16:04;98148.16;;;22.48;64.83
19447;BME280;9862;49.462;11.054;2023-06-01T08:18:30;98149.25;;;22.52;65.29
19447;BME280;9862;49.462;11.054;2023-06-01T08:20:57;98154.34;;;22.59;62.11
19447;BME280;9862;49.462;11.054;2023-06-01T08:23:27;98147.47;;;22.71;59.31
19447;BME280;9862;49.462;11.054;2023-06-01T08:25:53;98151.63;;;22.93;56.67
19447;BME280;9862;49.462;11.054;2023-06-01T08:28:20;98144.81;;;22.95;55.57
19447;BME280;9862;49.462;11.054;2023-06-01T08:30:47;98150.53;;;22.94;56.77
19447;BME280;9862;49.462;11.054;2023-06-01T08:33:13;98144.06;;;22.90;57.45
19447;BME280;9862;49.462;11.054;2023-06-01T08:35:40;98143.34;;;23.08;55.02
19447;BME280;9862;49.462;11.054;2023-06-01T08:38:07;98141.66;;;23.12;55.10
19447;BME280;9862;49.462;11.054;2023-06-01T08:40:35;98138.22;;;23.30;52.62
19447;BME280;9862;49.462;11.054;2023-06-01T08:43:07;98141.44;;;23.32;52.42
19447;BME280;9862;49.462;11.054;2023-06-01T08:45:36;98134.19;;;23.28;48.98
19447;BME280;9862;49.462;11.054;2023-06-01T08:48:04;98130.59;;;23.32;49.61
19447;BME280;9862;49.462;11.054;2023-06-01T08:50:34;98128.50;;;23.24;49.27
19447;BME280;9862;49.462;11.054;2023-06-01T08:53:03;98127.13;;;23.27;48.67
19447;BME280;9862;49.462;11.054;2023-06-01T08:55:30;98128.97;;;23.31;46.66
19447;BME280;9862;49.462;11.054;2023-06-01T08:57:58;98122.94;;;23.34;47.71
19447;BME280;9862;49.462;11.054;2023-06-01T09:00:25;98125.41;;;23.36;48.05
19447;BME280;9862;49.462;11.054;2023-06-01T09:02:52;98128.72;;;23.52;45.60
19447;BME280;9862;49.462;11.054;2023-06-01T09:05:19;98131.44;;;23.52;44.16
19447;BME280;9862;49.462;11.054;2023-06-01T09:07:45;98121.97;;;23.49;42.37
19447;BME280;9862;49.462;11.054;2023-06-01T09:10:13;98127.59;;;23.58;43.82
19447;BME280;9862;49.462;11.054;2023-06-01T09:12:50;98131.31;;;23.67;44.45
19447;BME280;9862;49.462;11.054;2023-06-01T09:15:19;98118.53;;;23.86;43.66
19447;BME280;9862;49.462;11.054;2023-06-01T09:17:48;98120.50;;;23.81;45.07
19447;BME280;9862;49.462;11.054;2023-06-01T09:20:22;98111.19;;;23.68;46.32
19447;BME280;9862;49.462;11.054;2023-06-01T09:22:49;98115.72;;;23.73;47.75
19447;BME280;9862;49.462;11.054;2023-06-01T09:25:16;98114.88;;;23.77;47.53
19447;BME280;9862;49.462;11.054;2023-06-01T09:27:45;98112.72;;;24.12;41.56
19447;BME280;9862;49.462;11.054;2023-06-01T09:30:12;98102.97;;;24.11;40.33
19447;BME280;9862;49.462;11.054;2023-06-01T09:32:40;98102.97;;;24.11;42.38
19447;BME280;9862;49.462;11.054;2023-06-01T09:35:08;98108.19;;;24.26;42.50
19447;BME280;9862;49.462;11.054;2023-06-01T09:37:37;98107.13;;;24.22;43.09
19447;BME280;9862;49.462;11.054;2023-06-01T09:40:16;98105.63;;;24.35;42.23
19447;BME280;9862;49.462;11.054;2023-06-01T09:42:42;98099.28;;;24.39;41.96
19447;BME280;9862;49.462;11.054;2023-06-01T09:45:17;98100.84;;;24.45;41.12
19447;BME280;9862;49.462;11.054;2023-06-01T09:47:46;98113.41;;;24.22;41.02
19447;BME280;9862;49.462;11.054;2023-06-01T09:50:34;98101.03;;;24.30;41.78
19447;BME280;9862;49.462;11.054;2023-06-01T09:53:01;98096.97;;;24.33;42.36
19447;BME280;9862;49.462;11.054;2023-06-01T09:55:28;98084.22;;;24.28;43.01
19447;BME280;9862;49.462;11.054;2023-06-01T09:58:18;98088.97;;;24.55;42.80
19447;BME280;9862;49.462;11.054;2023-06-01T10:00:46;98084.34;;;24.69;41.81
19447;BME280;9862;49.462;11.054;2023-06-01T10:03:15;98081.88;;;24.73;42.04
19447;BME280;9862;49.462;11.054;2023-06-01T10:05:42;98086.88;;;24.66;42.38
19447;BME280;9862;49.462;11.054;2023-06-01T10:08:11;98087.88;;;24.70;41.69
19447;BME280;9862;49.462;11.054;2023-06-01T10:10:38;98081.38;;;24.71;41.67
19447;BME280;9862;49.462;11.054;2023-06-01T10:13:05;98079.63;;;24.61;41.63
19447;BME280;9862;49.462;11.054;2023-06-01T10:15:32;98075.00;;;24.62;42.09
19447;BME280;9862;49.462;11.054;2023-06-01T10:17:59;98080.53;;;24.70;42.46
19447;BME280;9862;49.462;11.054;2023-06-01T10:20:29;98072.09;;;24.99;40.94
19447;BME280;9862;49.462;11.054;2023-06-01T10:22:59;98070.19;;;24.86;40.81
19447;BME280;9862;49.462;11.054;2023-06-01T10:25:28;98064.94;;;24.76;41.90
19447;BME280;9862;49.462;11.054;2023-06-01T10:27:59;98074.94;;;24.80;41.39
19447;BME280;9862;49.462;11.054;2023-06-01T10:30:27;98065.75;;;24.90;41.18
19447;BME280;9862;49.462;11.054;2023-06-01T10:32:54;98060.91;;;24.87;42.79
19447;BME280;9862;49.462;11.054;2023-06-01T10:38:28;98055.88;;;24.94;41.67
19447;BME280;9862;49.462;11.054;2023-06-01T10:41:24;98057.97;;;24.97;40.85
19447;BME280;9862;49.462;11.054;2023-06-01T10:43:51;98052.66;;;24.92;40.50
19447;BME280;9862;49.462;11.054;2023-06-01T10:46:38;98060.50;;;24.94;40.12
19447;BME280;9862;49.462;11.054;2023-06-01T10:49:06;98054.66;;;24.87;41.50
19447;BME280;9862;49.462;11.054;2023-06-01T10:51:32;98049.81;;;24.83;40.33
19447;BME280;9862;49.462;11.054;2023-06-01T10:54:29;98052.53;;;24.83;38.62
19447;BME280;9862;49.462;11.054;2023-06-01T10:57:18;98048.59;;;24.76;39.55
19447;BME280;9862;49.462;11.054;2023-06-01T11:00:13;98049.16;;;24.59;40.44
19447;BME280;9862;49.462;11.054;2023-06-01T11:02:45;98044.25;;;24.61;40.57
19447;BME280;9862;49.462;11.054;2023-06-01T11:05:35;98044.75;;;24.77;39.99
19447;BME280;9862;49.462;11.054;2023-06-01T11:08:03;98041.84;;;24.87;39.84
19447;BME280;9862;49.462;11.054;2023-06-01T11:10:56;98038.44;;;24.95;39.65
19447;BME280;9862;49.462;11.054;2023-06-01T11:13:25;98046.78;;;24.99;39.80
19447;BME280;9862;49.462;11.054;2023-06-01T11:16:27;98044.97;;;24.94;39.23
19447;BME280;9862;49.462;11.054;2023-06-01T11:18:55;98037.31;;;24.96;39.91
19447;BME280;9862;49.462;11.054;2023-06-01T11:21:24;98041.25;;;24.90;40.42
19447;BME280;9862;49.462;11.054;2023-06-01T11:23:52;98033.69;;;24.87;40.76
19447;BME280;9862;49.462;11.054;2023-06-01T11:26:23;98034.81;;;25.00;42.34
19447;BME280;9862;49.462;11.054;2023-06-01T11:28:52;98023.63;;;25.01;41.84
19447;BME280;9862;49.462;11.054;2023-06-01T11:31:19;98026.25;;;25.06;42.66
19447;BME280;9862;49.462;11.054;2023-06-01T11:33:49;98016.97;;;25.21;42.50
19447;BME280;9862;49.462;11.054;2023-06-01T11:36:19;98019.38;;;25.23;42.08
19447;BME280;9862;49.462;11.054;2023-06-01T11:38:49;98008.00;;;25.21;42.65
19447;BME280;9862;49.462;11.054;2023-06-01T11:41:16;98012.81;;;25.24;42.76
19447;BME280;9862;49.462;11.054;2023-06-01T11:43:44;98014.66;;;25.15;43.03
19447;BME280;9862;49.462;11.054;2023-06-01T11:46:10;98008.09;;;25.02;43.20
19447;BME280;9862;49.462;11.054;2023-06-01T11:48:37;98007.38;;;25.24;43.15
19447;BME280;9862;49.462;11.054;2023-06-01T11:51:04;98007.28;;;25.15;43.23
19447;BME280;9862;49.462;11.054;2023-06-01T11:53:31;98004.25;;;25.17;43.68
19447;BME280;9862;49.462;11.054;2023-06-01T11:55:58;98001.22;;;25.18;43.18
19447;BME280;9862;49.462;11.054;2023-06-01T11:58:27;97995.78;;;25.18;43.05
19447;BME280;9862;49.462;11.054;2023-06-01T12:00:55;97989.31;;;25.28;43.36
19447;BME280;9862;49.462;11.054;2023-06-01T12:03:23;97987.19;;;25.25;43.84
19447;BME280;9862;49.462;11.054;2023-06-01T12:05:50;97992.09;;;25.50;43.17
19447;BME280;9862;49.462;11.054;2023-06-01T12:08:18;97983.69;;;25.60;42.21
19447;BME280;9862;49.462;11.054;2023-06-01T12:10:47;97988.44;;;25.55;42.42
19447;BME280;9862;49.462;11.054;2023-06-01T12:13:14;97989.16;;;25.60;42.35
19447;BME280;9862;49.462;11.054;2023-06-01T12:15:41;97991.72;;;25.43;42.14
19447;BME280;9862;49.462;11.054;2023-06-01T12:18:09;97985.41;;;25.56;41.83
19447;BME280;9862;49.462;11.054;2023-06-01T12:20:37;97978.56;;;25.45;42.38
19447;BME280;9862;49.462;11.054;2023-06-01T12:23:12;97982.00;;;25.51;40.87
19447;BME280;9862;49.462;11.054;2023-06-01T12:25:48;97971.91;;;25.51;41.68
19447;BME280;9862;49.462;11.054;2023-06-01T12:28:15;97972.28;;;25.58;41.95
19447;BME280;9862;49.462;11.054;2023-06-01T12:30:43;97968.50;;;25.82;41.89
19447;BME280;9862;49.462;11.054;2023-06-01T12:33:30;97966.41;;;25.79;40.92
19447;BME280;9862;49.462;11.054;2023-06-01T12:35:57;97965.50;;;25.69;41.30
19447;BME280;9862;49.462;11.054;2023-06-01T12:38:24;97961.16;;;25.68;41.12
19447;BME280;9862;49.462;11.054;2023-06-01T12:41:05;97961.94;;;25.83;40.94
19447;BME280;9862;49.462;11.054;2023-06-01T12:43:33;97964.97;;;25.81;40.95
19447;BME280;9862;49.462;11.054;2023-06-01T12:46:01;97957.09;;;25.80;40.54
19447;BME280;9862;49.462;11.054;2023-06-01T12:48:34;97951.41;;;25.90;40.75
19447;BME280;9862;49.462;11.054;2023-06-01T12:51:02;97951.16;;;26.00;40.47
19447;BME280;9862;49.462;11.054;2023-06-01T12:53:29;97944.09;;;25.99;40.37
19447;BME280;9862;49.462;11.054;2023-06-01T12:55:56;97945.44;;;26.10;39.95
19447;BME280;9862;49.462;11.054;2023-06-01T12:58:23;97951.25;;;26.17;39.07
19447;BME280;9862;49.462;11.054;2023-06-01T13:00:49;97940.69;;;26.24;38.36
19447;BME280;9862;49.462;11.054;2023-06-01T13:03:16;97954.31;;;26.24;37.36
19447;BME280;9862;49.462;11.054;2023-06-01T13:05:44;97932.97;;;26.18;38.73
19447;BME280;9862;49.462;11.054;2023-06-01T13:08:11;97932.38;;;26.30;37.66
19447;BME280;9862;49.462;11.054;2023-06-01T13:10:38;97927.03;;;26.47;37.74
19447;BME280;9862;49.462;11.054;2023-06-01T13:13:06;97929.44;;;26.48;37.40